Check out our new PWSWeather beta!
PWSweather.com
Personal Weather Stations
Station Observations
ENZIAN1
Bad KleinkirchheimAT 9546

Bad KleinkirchheimAT 9546

Lat: 46.814813, Lon: 13.800813800000014

Elevation: 3540

Station Type: Netatmo weatherstation

High Low Average
Temperature 45.3°F7.4°C 25.2°F-3.8°C 34.0°F1.1°C
Dew Point 23.9°F-4.5°C 11.8°F-11.2°C 16.4°F-8.7°C
Winds 4.9 mph 7.9 kmh Calm Calm 1.0 mph SW1.6 kmh SW
Wind Gusts 21.7 mph34.9 kmh 0.7 mph1.1 kmh 5.0 mph8.0 kmh
Humidity 72% 29% 51%
Pressure 30.37 in1028.4 mb 30.06 in1017.9 mb -
Precipitation 0.00 in0.0 mm - -
Hour Temp Dew Point Humidity Winds Wind Gusts Pressure Precip Precip Rate Daily Precip Total
12:04 AM 27.9°F-2.3°C 15.6°F-9.1°C 65% 0.7 mph W1.1 kmh W 2.5 mph4.0 kmh 30.12 in1020.0 mb 0.00 in0.0 mm 0.00 in0.0 mm 0.00 in0.0 mm
12:25 AM 28.6°F-1.9°C 16.0°F-8.9°C 64% 0.7 mph SE1.1 kmh SE 1.8 mph2.9 kmh 30.11 in1019.6 mb 0.00 in0.0 mm 0.00 in0.0 mm 0.00 in0.0 mm
12:44 AM 28.2°F-2.1°C 15.6°F-9.1°C 64% 0.7 mph W1.1 kmh W 1.8 mph2.9 kmh 30.12 in1020.0 mb 0.00 in0.0 mm 0.00 in0.0 mm 0.00 in0.0 mm
01:05 AM 27.9°F-2.3°C 15.6°F-9.1°C 65% 0.7 mph W1.1 kmh W 1.8 mph2.9 kmh 30.11 in1019.6 mb 0.00 in0.0 mm 0.00 in0.0 mm 0.00 in0.0 mm
01:25 AM 27.3°F-2.6°C 15.1°F-9.4°C 65% 0.7 mph SW1.1 kmh SW 1.8 mph2.9 kmh 30.11 in1019.6 mb 0.00 in0.0 mm 0.00 in0.0 mm 0.00 in0.0 mm
01:45 AM 27.0°F-2.8°C 15.1°F-9.4°C 66% 0.7 mph W1.1 kmh W 1.8 mph2.9 kmh 30.10 in1019.3 mb 0.00 in0.0 mm 0.00 in0.0 mm 0.00 in0.0 mm
02:06 AM 26.6°F-3.0°C 14.7°F-9.6°C 66% 0.7 mph SW1.1 kmh SW 1.8 mph2.9 kmh 30.09 in1019.0 mb 0.00 in0.0 mm 0.00 in0.0 mm 0.00 in0.0 mm
02:26 AM 26.6°F-3.0°C 15.4°F-9.2°C 68% 0.7 mph W1.1 kmh W 3.1 mph5.0 kmh 30.08 in1018.6 mb 0.00 in0.0 mm 0.00 in0.0 mm 0.00 in0.0 mm
02:46 AM 27.0°F-2.8°C 15.8°F-9.0°C 68% 0.7 mph W1.1 kmh W 1.8 mph2.9 kmh 30.09 in1019.0 mb 0.00 in0.0 mm 0.00 in0.0 mm 0.00 in0.0 mm
03:06 AM 27.1°F-2.7°C 16.0°F-8.9°C 68% 0.7 mph NW1.1 kmh NW 2.5 mph4.0 kmh 30.08 in1018.6 mb 0.00 in0.0 mm 0.00 in0.0 mm 0.00 in0.0 mm
03:27 AM 27.5°F-2.5°C 16.3°F-8.7°C 68% 0.7 mph SW1.1 kmh SW 1.8 mph2.9 kmh 30.09 in1019.0 mb 0.00 in0.0 mm 0.00 in0.0 mm 0.00 in0.0 mm
03:47 AM 27.5°F-2.5°C 16.3°F-8.7°C 68% 0.7 mph W1.1 kmh W 2.5 mph4.0 kmh 30.08 in1018.6 mb 0.00 in0.0 mm 0.00 in0.0 mm 0.00 in0.0 mm
04:08 AM 27.5°F-2.5°C 16.3°F-8.7°C 68% 0.7 mph W1.1 kmh W 1.8 mph2.9 kmh 30.08 in1018.6 mb 0.00 in0.0 mm 0.00 in0.0 mm 0.00 in0.0 mm
04:28 AM 27.3°F-2.6°C 16.2°F-8.8°C 68% 0.7 mph NW1.1 kmh NW 1.8 mph2.9 kmh 30.07 in1018.3 mb 0.00 in0.0 mm 0.00 in0.0 mm 0.00 in0.0 mm
04:48 AM 27.0°F-2.8°C 15.8°F-9.0°C 68% 0.7 mph W1.1 kmh W 1.8 mph2.9 kmh 30.07 in1018.3 mb 0.00 in0.0 mm 0.00 in0.0 mm 0.00 in0.0 mm
05:08 AM 26.6°F-3.0°C 15.4°F-9.2°C 68% 0.7 mph W1.1 kmh W 2.5 mph4.0 kmh 30.07 in1018.3 mb 0.00 in0.0 mm 0.00 in0.0 mm 0.00 in0.0 mm
05:29 AM 26.2°F-3.2°C 15.4°F-9.2°C 69% 0.7 mph W1.1 kmh W 1.8 mph2.9 kmh 30.06 in1017.9 mb 0.00 in0.0 mm 0.00 in0.0 mm 0.00 in0.0 mm
05:49 AM 25.9°F-3.4°C 15.1°F-9.4°C 69% Calm Calm 1.8 mph2.9 kmh 30.07 in1018.3 mb 0.00 in0.0 mm 0.00 in0.0 mm 0.00 in0.0 mm
06:09 AM 25.5°F-3.6°C 15.1°F-9.4°C 70% 0.7 mph NW1.1 kmh NW 2.5 mph4.0 kmh 30.08 in1018.6 mb 0.00 in0.0 mm 0.00 in0.0 mm 0.00 in0.0 mm
06:29 AM 25.3°F-3.7°C 14.9°F-9.5°C 70% 0.7 mph W1.1 kmh W 2.5 mph4.0 kmh 30.08 in1018.6 mb 0.00 in0.0 mm 0.00 in0.0 mm 0.00 in0.0 mm
06:40 AM 25.2°F-3.8°C 14.7°F-9.6°C 70% 0.7 mph 1.1 kmh 1.8 mph2.9 kmh 30.08 in1018.6 mb 0.00 in0.0 mm 0.00 in0.0 mm 0.00 in0.0 mm
07:00 AM 25.2°F-3.8°C 15.1°F-9.4°C 71% 0.7 mph NW1.1 kmh NW 3.1 mph5.0 kmh 30.09 in1019.0 mb 0.00 in0.0 mm 0.00 in0.0 mm 0.00 in0.0 mm
07:21 AM 25.2°F-3.8°C 15.1°F-9.4°C 71% 1.8 mph NW2.9 kmh NW 3.8 mph6.1 kmh 30.11 in1019.6 mb 0.00 in0.0 mm 0.00 in0.0 mm 0.00 in0.0 mm
07:40 AM 25.5°F-3.6°C 15.8°F-9.0°C 72% 0.7 mph SW1.1 kmh SW 2.5 mph4.0 kmh 30.13 in1020.3 mb 0.00 in0.0 mm 0.00 in0.0 mm 0.00 in0.0 mm
08:01 AM 26.6°F-3.0°C 16.5°F-8.6°C 71% 1.8 mph SW2.9 kmh SW 6.3 mph10.1 kmh 30.14 in1020.7 mb 0.00 in0.0 mm 0.00 in0.0 mm 0.00 in0.0 mm
08:21 AM 27.9°F-2.3°C 17.6°F-8.0°C 71% 1.8 mph SW2.9 kmh SW 2.5 mph4.0 kmh 30.14 in1020.7 mb 0.00 in0.0 mm 0.00 in0.0 mm 0.00 in0.0 mm
08:42 AM 32.0°F0.0°C 20.7°F-6.3°C 68% 1.8 mph SSE2.9 kmh SSE 3.8 mph6.1 kmh 30.16 in1021.3 mb 0.00 in0.0 mm 0.00 in0.0 mm 0.00 in0.0 mm
09:02 AM 35.1°F1.7°C 22.5°F-5.3°C 65% 0.7 mph SSW1.1 kmh SSW 3.1 mph5.0 kmh 30.16 in1021.3 mb 0.00 in0.0 mm 0.00 in0.0 mm 0.00 in0.0 mm
09:22 AM 38.1°F3.4°C 23.9°F-4.5°C 61% 1.8 mph ESE2.9 kmh ESE 4.9 mph7.9 kmh 30.18 in1022.0 mb 0.00 in0.0 mm 0.00 in0.0 mm 0.00 in0.0 mm
09:43 AM 41.5°F5.3°C 22.3°F-5.4°C 48% 4.9 mph S7.9 kmh S 8.7 mph14.0 kmh 30.19 in1022.4 mb 0.00 in0.0 mm 0.00 in0.0 mm 0.00 in0.0 mm
10:03 AM 43.5°F6.4°C 22.3°F-5.4°C 43% 3.8 mph S6.1 kmh S 15.0 mph24.1 kmh 30.21 in1023.0 mb 0.00 in0.0 mm 0.00 in0.0 mm 0.00 in0.0 mm
10:29 AM 44.4°F6.9°C 21.6°F-5.8°C 39% 3.1 mph S5.0 kmh S 12.5 mph20.1 kmh 30.23 in1023.7 mb 0.00 in0.0 mm 0.00 in0.0 mm 0.00 in0.0 mm
10:49 AM 45.0°F7.2°C 20.8°F-6.2°C 36% 3.8 mph S6.1 kmh S 9.4 mph15.1 kmh 30.23 in1023.7 mb 0.00 in0.0 mm 0.00 in0.0 mm 0.00 in0.0 mm
11:10 AM 45.0°F7.2°C 19.8°F-6.8°C 33% 4.9 mph SW7.9 kmh SW 16.1 mph25.9 kmh 30.24 in1024.0 mb 0.00 in0.0 mm 0.00 in0.0 mm 0.00 in0.0 mm
11:29 AM 45.0°F7.2°C 19.0°F-7.2°C 31% 3.8 mph S6.1 kmh S 12.5 mph20.1 kmh 30.25 in1024.4 mb 0.00 in0.0 mm 0.00 in0.0 mm 0.00 in0.0 mm
11:40 AM 45.0°F7.2°C 18.7°F-7.4°C 30% 3.8 mph SW6.1 kmh SW 21.7 mph34.9 kmh 30.25 in1024.4 mb 0.00 in0.0 mm 0.00 in0.0 mm 0.00 in0.0 mm
12:07 PM 45.1°F7.3°C 18.3°F-7.6°C 29% 4.9 mph SW7.9 kmh SW 20.6 mph33.2 kmh 30.25 in1024.4 mb 0.00 in0.0 mm 0.00 in0.0 mm 0.00 in0.0 mm
12:28 PM 45.0°F7.2°C 18.7°F-7.4°C 30% 4.9 mph SSW7.9 kmh SSW 14.3 mph23.0 kmh 30.24 in1024.0 mb 0.00 in0.0 mm 0.00 in0.0 mm 0.00 in0.0 mm
12:50 PM 45.0°F7.2°C 19.0°F-7.2°C 31% 3.8 mph SSW6.1 kmh SSW 19.2 mph30.9 kmh 30.24 in1024.0 mb 0.00 in0.0 mm 0.00 in0.0 mm 0.00 in0.0 mm
01:09 PM 45.3°F7.4°C 19.2°F-7.1°C 31% 3.1 mph S5.0 kmh S 8.7 mph14.0 kmh 30.23 in1023.7 mb 0.00 in0.0 mm 0.00 in0.0 mm 0.00 in0.0 mm
01:30 PM 45.1°F7.3°C 19.2°F-7.1°C 31% 3.1 mph SSW5.0 kmh SSW 8.7 mph14.0 kmh 30.23 in1023.7 mb 0.00 in0.0 mm 0.00 in0.0 mm 0.00 in0.0 mm
01:40 PM 45.1°F7.3°C 19.2°F-7.1°C 31% 3.1 mph WSW5.0 kmh WSW 11.2 mph18.0 kmh 30.23 in1023.7 mb 0.00 in0.0 mm 0.00 in0.0 mm 0.00 in0.0 mm
02:01 PM 45.1°F7.3°C 19.6°F-6.9°C 32% 3.8 mph SSW6.1 kmh SSW 15.4 mph24.8 kmh 30.23 in1023.7 mb 0.00 in0.0 mm 0.00 in0.0 mm 0.00 in0.0 mm
02:21 PM 45.0°F7.2°C 19.4°F-7.0°C 32% 3.1 mph SSW5.0 kmh SSW 6.9 mph11.1 kmh 30.22 in1023.4 mb 0.00 in0.0 mm 0.00 in0.0 mm 0.00 in0.0 mm
02:41 PM 45.0°F7.2°C 19.4°F-7.0°C 32% 1.8 mph S2.9 kmh S 4.9 mph7.9 kmh 30.22 in1023.4 mb 0.00 in0.0 mm 0.00 in0.0 mm 0.00 in0.0 mm
03:01 PM 45.0°F7.2°C 19.0°F-7.2°C 31% 2.5 mph S4.0 kmh S 8.7 mph14.0 kmh 30.23 in1023.7 mb 0.00 in0.0 mm 0.00 in0.0 mm 0.00 in0.0 mm
03:22 PM 44.8°F7.1°C 18.5°F-7.5°C 30% 2.5 mph SSW4.0 kmh SSW 8.7 mph14.0 kmh 30.23 in1023.7 mb 0.00 in0.0 mm 0.00 in0.0 mm 0.00 in0.0 mm
03:42 PM 44.6°F7.0°C 18.7°F-7.4°C 31% 1.8 mph S2.9 kmh S 6.3 mph10.1 kmh 30.23 in1023.7 mb 0.00 in0.0 mm 0.00 in0.0 mm 0.00 in0.0 mm
04:03 PM 44.2°F6.8°C 18.0°F-7.8°C 30% 1.8 mph SSE2.9 kmh SSE 3.8 mph6.1 kmh 30.24 in1024.0 mb 0.00 in0.0 mm 0.00 in0.0 mm 0.00 in0.0 mm
04:23 PM 43.9°F6.6°C 18.3°F-7.6°C 32% 0.7 mph W1.1 kmh W 3.1 mph5.0 kmh 30.24 in1024.0 mb 0.00 in0.0 mm 0.00 in0.0 mm 0.00 in0.0 mm
04:43 PM 43.5°F6.4°C 18.1°F-7.7°C 32% 0.7 mph SSE1.1 kmh SSE 3.8 mph6.1 kmh 30.25 in1024.4 mb 0.00 in0.0 mm 0.00 in0.0 mm 0.00 in0.0 mm
05:02 PM 42.3°F5.7°C 17.2°F-8.2°C 33% 0.7 mph WSW1.1 kmh WSW 2.5 mph4.0 kmh 30.26 in1024.7 mb 0.00 in0.0 mm 0.00 in0.0 mm 0.00 in0.0 mm
05:22 PM 40.6°F4.8°C 16.5°F-8.6°C 35% 0.7 mph SW1.1 kmh SW 3.8 mph6.1 kmh 30.26 in1024.7 mb 0.00 in0.0 mm 0.00 in0.0 mm 0.00 in0.0 mm
05:43 PM 38.8°F3.8°C 15.8°F-9.0°C 37% 0.7 mph S1.1 kmh S 2.5 mph4.0 kmh 30.27 in1025.1 mb 0.00 in0.0 mm 0.00 in0.0 mm 0.00 in0.0 mm
06:03 PM 37.0°F2.8°C 14.9°F-9.5°C 39% 0.7 mph N1.1 kmh N 2.5 mph4.0 kmh 30.28 in1025.4 mb 0.00 in0.0 mm 0.00 in0.0 mm 0.00 in0.0 mm
06:24 PM 35.6°F2.0°C 14.2°F-9.9°C 41% 0.7 mph S1.1 kmh S 2.5 mph4.0 kmh 30.30 in1026.1 mb 0.00 in0.0 mm 0.00 in0.0 mm 0.00 in0.0 mm
06:43 PM 34.5°F1.4°C 14.4°F-9.8°C 44% Calm Calm 1.8 mph2.9 kmh 30.30 in1026.1 mb 0.00 in0.0 mm 0.00 in0.0 mm 0.00 in0.0 mm
07:09 PM 33.3°F0.7°C 13.6°F-10.2°C 45% 0.7 mph W1.1 kmh W 2.5 mph4.0 kmh 30.32 in1026.8 mb 0.00 in0.0 mm 0.00 in0.0 mm 0.00 in0.0 mm
07:30 PM 32.2°F0.1°C 13.6°F-10.2°C 48% 0.7 mph NW1.1 kmh NW 1.8 mph2.9 kmh 30.31 in1026.4 mb 0.00 in0.0 mm 0.00 in0.0 mm 0.00 in0.0 mm
07:40 PM 32.0°F0.0°C 13.5°F-10.3°C 48% 0.7 mph SW1.1 kmh SW 1.8 mph2.9 kmh 30.32 in1026.8 mb 0.00 in0.0 mm 0.00 in0.0 mm 0.00 in0.0 mm
08:01 PM 31.6°F-0.2°C 13.1°F-10.5°C 48% 0.7 mph NNW1.1 kmh NNW 1.8 mph2.9 kmh 30.32 in1026.8 mb 0.00 in0.0 mm 0.00 in0.0 mm 0.00 in0.0 mm
08:25 PM 30.9°F-0.6°C 12.7°F-10.7°C 49% Calm Calm 1.8 mph2.9 kmh 30.33 in1027.1 mb 0.00 in0.0 mm 0.00 in0.0 mm 0.00 in0.0 mm
08:46 PM 30.6°F-0.8°C 13.3°F-10.4°C 51% 0.7 mph SW1.1 kmh SW 1.8 mph2.9 kmh 30.33 in1027.1 mb 0.00 in0.0 mm 0.00 in0.0 mm 0.00 in0.0 mm
09:06 PM 30.0°F-1.1°C 13.1°F-10.5°C 52% 0.7 mph W1.1 kmh W 1.8 mph2.9 kmh 30.33 in1027.1 mb 0.00 in0.0 mm 0.00 in0.0 mm 0.00 in0.0 mm
09:27 PM 29.5°F-1.4°C 12.2°F-11.0°C 51% Calm Calm 1.8 mph2.9 kmh 30.35 in1027.8 mb 0.00 in0.0 mm 0.00 in0.0 mm 0.00 in0.0 mm
09:47 PM 29.1°F-1.6°C 12.6°F-10.8°C 53% 0.7 mph W1.1 kmh W 1.8 mph2.9 kmh 30.34 in1027.4 mb 0.00 in0.0 mm 0.00 in0.0 mm 0.00 in0.0 mm
10:08 PM 28.8°F-1.8°C 12.2°F-11.0°C 53% 0.7 mph SSW1.1 kmh SSW 1.8 mph2.9 kmh 30.35 in1027.8 mb 0.00 in0.0 mm 0.00 in0.0 mm 0.00 in0.0 mm
10:27 PM 28.2°F-2.1°C 12.0°F-11.1°C 54% 0.7 mph W1.1 kmh W 1.8 mph2.9 kmh 30.35 in1027.8 mb 0.00 in0.0 mm 0.00 in0.0 mm 0.00 in0.0 mm
10:48 PM 28.0°F-2.2°C 11.8°F-11.2°C 54% 0.7 mph S1.1 kmh S 1.8 mph2.9 kmh 30.35 in1027.8 mb 0.00 in0.0 mm 0.00 in0.0 mm 0.00 in0.0 mm
11:08 PM 27.7°F-2.4°C 11.8°F-11.2°C 55% 0.7 mph W1.1 kmh W 1.8 mph2.9 kmh 30.35 in1027.8 mb 0.00 in0.0 mm 0.00 in0.0 mm 0.00 in0.0 mm
11:28 PM 27.5°F-2.5°C 12.0°F-11.1°C 56% 0.7 mph W1.1 kmh W 1.8 mph2.9 kmh 30.36 in1028.1 mb 0.00 in0.0 mm 0.00 in0.0 mm 0.00 in0.0 mm
11:48 PM 27.3°F-2.6°C 12.0°F-11.1°C 56% Calm Calm 0.7 mph1.1 kmh 30.36 in1028.1 mb 0.00 in0.0 mm 0.00 in0.0 mm 0.00 in0.0 mm
11:59 PM 27.1°F-2.7°C 11.8°F-11.2°C 56% 0.7 mph SW1.1 kmh SW 1.8 mph2.9 kmh 30.37 in1028.4 mb 0.00 in0.0 mm 0.00 in0.0 mm 0.00 in0.0 mm